createdAt,value
2022-09-15T00:01:40.698Z,2.67
2022-09-15T00:04:07.344Z,3.07
2022-09-15T00:06:34.380Z,3.43
2022-09-15T00:09:00.768Z,6.17
2022-09-15T00:11:28.840Z,3.50
2022-09-15T00:13:56.342Z,3.53
2022-09-15T00:16:23.610Z,4.50
2022-09-15T00:18:50.205Z,3.50
2022-09-15T00:21:18.397Z,4.03
2022-09-15T00:23:45.120Z,3.93
2022-09-15T00:26:12.778Z,4.10
2022-09-15T00:28:39.275Z,5.13
2022-09-15T00:31:07.018Z,4.20
2022-09-15T00:33:33.644Z,4.03
2022-09-15T00:36:02.140Z,5.00
2022-09-15T00:38:28.603Z,5.50
2022-09-15T00:40:55.856Z,4.50
2022-09-15T00:43:40.901Z,4.63
2022-09-15T00:46:07.764Z,6.13
2022-09-15T00:48:34.776Z,5.10
2022-09-15T00:51:01.798Z,4.80
2022-09-15T00:53:28.731Z,5.17
2022-09-15T00:55:56.483Z,4.87
2022-09-15T00:58:25.922Z,3.83
2022-09-15T01:00:56.229Z,4.07
2022-09-15T01:03:23.772Z,6.43
2022-09-15T01:05:54.851Z,4.87
2022-09-15T01:08:24.260Z,4.20
2022-09-15T01:10:52.095Z,4.77
2022-09-15T01:13:18.404Z,4.30
2022-09-15T01:15:52.555Z,5.37
2022-09-15T01:18:24.410Z,4.80
2022-09-15T01:20:56.598Z,4.93
2022-09-15T01:23:32.276Z,6.30
2022-09-15T01:26:17.048Z,5.07
2022-09-15T01:29:01.905Z,4.37
2022-09-15T01:32:22.473Z,4.17
2022-09-15T01:34:54.951Z,5.17
2022-09-15T01:37:23.598Z,7.10
2022-09-15T01:39:51.407Z,6.33
2022-09-15T01:42:18.508Z,5.80
2022-09-15T01:44:45.933Z,7.90
2022-09-15T01:47:13.852Z,8.80
2022-09-15T01:49:46.414Z,6.73
2022-09-15T01:52:15.626Z,7.43
2022-09-15T01:54:48.953Z,7.57
2022-09-15T01:57:17.225Z,7.13
2022-09-15T01:59:44.335Z,10.93
2022-09-15T02:02:22.861Z,7.73
2022-09-15T02:04:54.244Z,7.43
2022-09-15T02:07:27.417Z,8.23
2022-09-15T02:09:58.795Z,8.90
2022-09-15T02:12:33.853Z,8.73
2022-09-15T02:15:07.822Z,7.63
2022-09-15T02:17:36.067Z,8.30
2022-09-15T02:20:15.475Z,7.03
2022-09-15T02:22:44.038Z,6.70
2022-09-15T02:25:18.859Z,7.33
2022-09-15T02:27:47.671Z,6.97
2022-09-15T02:30:15.505Z,6.87
2022-09-15T02:32:46.600Z,8.10
2022-09-15T02:35:13.586Z,7.17
2022-09-15T02:37:39.984Z,7.13
2022-09-15T02:40:06.777Z,6.70
2022-09-15T02:42:33.420Z,7.10
2022-09-15T02:45:00.658Z,6.67
2022-09-15T02:47:28.257Z,12.27
2022-09-15T02:49:55.491Z,6.93
2022-09-15T02:52:21.860Z,6.37
2022-09-15T02:54:48.249Z,6.63
2022-09-15T02:57:14.606Z,7.13
2022-09-15T02:59:59.463Z,7.03
2022-09-15T03:02:26.738Z,7.50
2022-09-15T03:04:53.112Z,7.73
2022-09-15T03:07:19.512Z,7.67
2022-09-15T03:09:46.023Z,8.67
2022-09-15T03:12:12.423Z,7.17
2022-09-15T03:14:38.852Z,8.33
2022-09-15T03:17:05.654Z,7.13
2022-09-15T03:19:31.965Z,6.90
2022-09-15T03:21:58.314Z,8.27
2022-09-15T03:24:24.632Z,8.80
2022-09-15T03:26:51.232Z,9.50
2022-09-15T03:29:17.540Z,7.17
2022-09-15T03:31:44.147Z,8.77
2022-09-15T03:34:10.555Z,8.70
2022-09-15T03:36:36.962Z,7.80
2022-09-15T03:39:03.493Z,8.10
2022-09-15T03:41:29.949Z,8.23
2022-09-15T03:43:56.666Z,9.43
2022-09-15T03:46:23.330Z,7.90
2022-09-15T03:48:49.647Z,9.70
2022-09-15T03:51:15.953Z,7.93
2022-09-15T03:53:42.461Z,12.43
2022-09-15T03:56:23.456Z,7.97
2022-09-15T03:58:50.427Z,9.63
2022-09-15T04:01:18.683Z,8.30
2022-09-15T04:03:50.114Z,11.00
2022-09-15T04:06:17.563Z,10.20
2022-09-15T04:08:43.922Z,10.57
2022-09-15T04:11:11.193Z,9.83
2022-09-15T04:13:38.483Z,8.43
2022-09-15T04:16:06.430Z,10.13
2022-09-15T04:18:33.180Z,8.23
2022-09-15T04:21:00.444Z,9.47
2022-09-15T04:23:27.240Z,11.07
2022-09-15T04:25:57.924Z,12.37
2022-09-15T04:28:28.024Z,13.03
2022-09-15T04:31:02.605Z,8.10
2022-09-15T04:33:28.985Z,2.17
2022-09-15T04:36:06.247Z,2.80
2022-09-15T04:38:32.848Z,1.10
2022-09-15T04:41:00.014Z,1.27
2022-09-15T04:43:27.125Z,3.57
2022-09-15T04:45:53.952Z,3.20
2022-09-15T04:48:20.541Z,0.50
2022-09-15T04:50:46.921Z,1.10
2022-09-15T04:53:13.519Z,0.97
2022-09-15T04:55:40.366Z,1.50
2022-09-15T04:58:07.181Z,1.10
2022-09-15T05:00:37.257Z,2.57
2022-09-15T05:03:03.644Z,2.20
2022-09-15T05:05:29.974Z,1.00
2022-09-15T05:07:56.351Z,1.20
2022-09-15T05:10:22.724Z,1.70
2022-09-15T05:12:49.036Z,4.03
2022-09-15T05:15:15.487Z,5.10
2022-09-15T05:17:41.985Z,7.17
2022-09-15T05:20:08.445Z,9.60
2022-09-15T05:22:37.258Z,10.00
2022-09-15T05:25:07.641Z,13.53
2022-09-15T05:27:34.381Z,12.20
2022-09-15T05:30:31.851Z,13.70
2022-09-15T05:32:47.015Z,12.07
2022-09-15T05:35:14.403Z,13.80
2022-09-15T05:37:40.703Z,16.23
2022-09-15T05:40:08.684Z,15.60
2022-09-15T05:42:35.411Z,15.70
2022-09-15T05:45:01.745Z,14.73
2022-09-15T05:47:28.071Z,15.47
2022-09-15T05:49:54.942Z,17.37
2022-09-15T05:52:21.761Z,12.83
2022-09-15T05:54:48.135Z,15.13
2022-09-15T05:57:14.482Z,14.47
2022-09-15T05:59:42.023Z,13.33
2022-09-15T06:02:09.673Z,12.53
2022-09-15T06:04:36.053Z,9.67
2022-09-15T06:07:02.557Z,10.53
2022-09-15T06:09:28.933Z,10.63
2022-09-15T06:11:55.270Z,12.07
2022-09-15T06:14:21.621Z,12.60
2022-09-15T06:16:47.953Z,12.17
2022-09-15T06:19:14.772Z,11.70
2022-09-15T06:21:41.097Z,11.10
2022-09-15T06:24:07.565Z,11.70
2022-09-15T06:26:34.311Z,13.07
2022-09-15T06:29:01.826Z,12.43
2022-09-15T06:31:29.443Z,12.20
2022-09-15T06:33:57.518Z,10.57
2022-09-15T06:36:26.049Z,13.63
2022-09-15T06:38:52.691Z,13.23
2022-09-15T06:41:19.323Z,16.70
2022-09-15T06:43:46.661Z,12.93
2022-09-15T06:46:14.359Z,14.03
2022-09-15T06:48:41.174Z,14.30
2022-09-15T06:51:08.900Z,13.73
2022-09-15T06:53:36.257Z,10.20
2022-09-15T06:56:03.660Z,13.30
2022-09-15T06:58:30.430Z,16.43
2022-09-15T07:01:00.823Z,15.10
2022-09-15T07:03:27.350Z,13.27
2022-09-15T07:05:53.781Z,14.57
2022-09-15T07:08:20.101Z,12.00
2022-09-15T07:10:46.573Z,14.60
2022-09-15T07:13:12.921Z,12.67
2022-09-15T07:15:39.370Z,13.83
2022-09-15T07:18:05.980Z,11.67
2022-09-15T07:20:33.175Z,13.70
2022-09-15T07:22:59.497Z,12.83
2022-09-15T07:25:25.841Z,13.90
2022-09-15T07:27:52.164Z,14.07
2022-09-15T07:30:18.529Z,13.23
2022-09-15T07:32:44.863Z,19.00
2022-09-15T07:35:11.220Z,16.17
2022-09-15T07:37:37.644Z,13.70
2022-09-15T07:40:04.395Z,13.67
2022-09-15T07:42:35.448Z,15.70
2022-09-15T07:45:02.021Z,15.40
2022-09-15T07:47:28.357Z,17.77
2022-09-15T07:49:55.289Z,18.30
2022-09-15T07:52:21.610Z,13.53
2022-09-15T07:54:48.025Z,17.13
2022-09-15T07:57:14.377Z,15.70
2022-09-15T07:59:41.435Z,17.73
2022-09-15T08:02:09.867Z,16.67
2022-09-15T08:04:36.265Z,15.37
2022-09-15T08:07:02.661Z,15.80
2022-09-15T08:09:28.980Z,19.30
2022-09-15T08:11:55.309Z,15.53
2022-09-15T08:14:21.676Z,13.47
2022-09-15T08:16:48.000Z,12.10
2022-09-15T08:19:14.351Z,13.40
2022-09-15T08:21:40.655Z,13.73
2022-09-15T08:24:07.036Z,13.80
2022-09-15T08:26:33.375Z,12.83
2022-09-15T08:29:00.562Z,12.40
2022-09-15T08:31:26.968Z,12.07
2022-09-15T08:33:54.813Z,11.03
2022-09-15T08:36:21.488Z,12.80
2022-09-15T08:38:48.041Z,11.37
2022-09-15T08:41:23.524Z,12.93
2022-09-15T08:43:58.055Z,11.57
2022-09-15T08:46:27.810Z,12.53
2022-09-15T08:49:02.762Z,10.63
2022-09-15T08:51:32.345Z,12.37
2022-09-15T08:54:05.723Z,11.40
2022-09-15T08:56:32.197Z,9.97
2022-09-15T08:59:00.170Z,9.60
2022-09-15T09:01:38.459Z,11.50
2022-09-15T09:04:23.764Z,9.50
2022-09-15T09:07:04.320Z,9.97
2022-09-15T09:09:40.730Z,9.43
2022-09-15T09:12:19.062Z,9.60
2022-09-15T09:15:08.114Z,10.13
2022-09-15T09:17:54.691Z,9.43
2022-09-15T09:20:29.397Z,9.33
2022-09-15T09:22:57.542Z,8.67
2022-09-15T09:25:28.339Z,10.63
2022-09-15T09:27:56.382Z,10.47
2022-09-15T09:30:23.428Z,12.27
2022-09-15T09:32:52.474Z,16.63
2022-09-15T09:35:32.079Z,16.50
2022-09-15T09:37:59.976Z,17.00
2022-09-15T09:40:26.445Z,17.80
2022-09-15T09:42:52.821Z,15.57
2022-09-15T09:45:19.627Z,16.37
2022-09-15T09:47:46.444Z,17.97
2022-09-15T09:50:32.493Z,16.30
2022-09-15T09:52:59.445Z,18.13
2022-09-15T09:55:27.179Z,16.60
2022-09-15T09:57:54.333Z,18.80
2022-09-15T10:00:23.684Z,13.93
2022-09-15T10:02:50.314Z,15.27
2022-09-15T10:05:18.227Z,14.50
2022-09-15T10:07:44.645Z,16.83
2022-09-15T10:10:25.790Z,14.70
2022-09-15T10:12:55.648Z,16.43
2022-09-15T10:15:27.100Z,14.33
2022-09-15T10:17:55.135Z,12.00
2022-09-15T10:20:24.588Z,11.67
2022-09-15T10:22:51.296Z,12.77
2022-09-15T10:25:20.831Z,13.37
2022-09-15T10:28:06.280Z,14.10
2022-09-15T10:30:32.608Z,11.57
2022-09-15T10:33:17.673Z,13.40
2022-09-15T10:35:44.429Z,9.90
2022-09-15T10:38:15.864Z,10.93
2022-09-15T10:40:54.581Z,10.70
2022-09-15T10:43:26.668Z,11.30
2022-09-15T10:46:01.163Z,11.70
2022-09-15T10:48:40.629Z,11.00
2022-09-15T10:51:15.939Z,9.60
2022-09-15T10:53:42.298Z,8.47
2022-09-15T10:56:18.274Z,8.50
2022-09-15T10:58:45.877Z,12.57
2022-09-15T11:01:12.502Z,8.57
2022-09-15T11:03:57.641Z,8.90
2022-09-15T11:06:28.615Z,10.50
2022-09-15T11:09:10.313Z,9.83
2022-09-15T11:11:44.391Z,9.87
2022-09-15T11:14:23.002Z,9.30
2022-09-15T11:16:49.395Z,10.30
2022-09-15T11:19:15.797Z,8.67
2022-09-15T11:21:44.983Z,14.23
2022-09-15T11:24:14.376Z,10.60
2022-09-15T11:26:44.093Z,11.13
2022-09-15T11:29:16.733Z,7.33
2022-09-15T11:31:44.756Z,6.83
2022-09-15T11:34:23.365Z,9.37
2022-09-15T11:37:02.957Z,8.10
2022-09-15T11:39:46.151Z,6.90
2022-09-15T11:42:34.325Z,14.50
2022-09-15T11:45:01.447Z,17.90
2022-09-15T11:47:27.793Z,13.43
2022-09-15T11:50:00.264Z,13.30
2022-09-15T11:52:33.972Z,12.47
2022-09-15T11:55:09.023Z,12.87
2022-09-15T11:57:38.684Z,11.60
2022-09-15T12:00:13.750Z,9.33
2022-09-15T12:02:40.181Z,8.67
2022-09-15T12:05:06.704Z,9.43
2022-09-15T12:07:37.397Z,6.63
2022-09-15T12:10:13.743Z,4.37
2022-09-15T12:12:41.225Z,8.33
2022-09-15T12:15:13.378Z,5.37
2022-09-15T12:17:56.274Z,7.03
2022-09-15T12:20:29.255Z,5.40
2022-09-15T12:22:58.712Z,3.80
2022-09-15T12:25:29.297Z,6.43
2022-09-15T12:28:14.314Z,6.23
2022-09-15T12:30:41.435Z,6.90
2022-09-15T12:33:28.188Z,7.70
2022-09-15T12:35:54.526Z,6.87
2022-09-15T12:38:22.979Z,4.73
2022-09-15T12:40:57.461Z,5.30
2022-09-15T12:43:25.013Z,3.47
2022-09-15T12:45:59.053Z,4.67
2022-09-15T12:48:27.557Z,4.43
2022-09-15T12:50:55.720Z,4.03
2022-09-15T12:53:24.723Z,3.93
2022-09-15T12:55:56.140Z,5.47
2022-09-15T12:58:39.250Z,4.90
2022-09-15T13:01:18.697Z,6.00
2022-09-15T13:03:45.401Z,3.57
2022-09-15T13:06:11.814Z,2.83
2022-09-15T13:08:38.145Z,2.77
2022-09-15T13:11:08.050Z,2.63
2022-09-15T13:13:53.191Z,2.63
2022-09-15T13:16:34.812Z,3.20
2022-09-15T13:19:07.131Z,4.20
2022-09-15T13:21:34.867Z,2.87
2022-09-15T13:24:02.857Z,3.00
2022-09-15T13:26:30.412Z,3.07
2022-09-15T13:28:57.527Z,2.57
2022-09-15T13:39:58.590Z,3.07
2022-09-15T13:42:39.881Z,3.77
2022-09-15T13:45:15.594Z,4.10
2022-09-15T13:47:48.535Z,4.20
2022-09-15T13:50:19.527Z,3.53
2022-09-15T13:53:01.233Z,3.53
2022-09-15T13:55:28.798Z,4.93
2022-09-15T14:00:46.544Z,3.07
2022-09-15T14:03:16.222Z,3.53
2022-09-15T14:05:46.041Z,3.83
2022-09-15T14:08:15.217Z,3.27
2022-09-15T14:10:48.421Z,3.57
2022-09-15T14:13:16.389Z,3.20
2022-09-15T14:15:55.537Z,3.03
2022-09-15T14:18:21.924Z,3.00
2022-09-15T14:21:02.077Z,3.73
2022-09-15T14:23:28.698Z,2.97
2022-09-15T14:25:55.291Z,3.63
2022-09-15T14:28:27.287Z,4.53
2022-09-15T14:30:57.482Z,3.70
2022-09-15T14:33:24.103Z,4.67
2022-09-15T14:35:50.502Z,3.47
2022-09-15T14:38:24.228Z,3.13
2022-09-15T14:40:56.722Z,11.60
2022-09-15T14:43:23.991Z,16.33
2022-09-15T14:45:54.689Z,17.10
2022-09-15T14:48:27.878Z,12.77
2022-09-15T14:51:01.297Z,21.33
2022-09-15T14:53:29.093Z,17.43
2022-09-15T14:55:59.076Z,14.20
2022-09-15T14:58:36.690Z,5.27
2022-09-15T15:01:13.879Z,10.10
2022-09-15T15:03:40.300Z,8.83
2022-09-15T15:06:29.826Z,5.87
2022-09-15T15:09:03.217Z,7.27
2022-09-15T15:11:31.180Z,6.27
2022-09-15T15:13:57.676Z,6.03
2022-09-15T15:16:26.135Z,4.73
2022-09-15T15:18:53.375Z,2.60
2022-09-15T15:21:33.974Z,3.53
2022-09-15T15:24:00.372Z,3.23
2022-09-15T15:26:29.727Z,3.40
2022-09-15T15:28:56.185Z,2.60
2022-09-15T15:31:23.617Z,4.53
2022-09-15T15:33:50.182Z,3.47
2022-09-15T15:36:20.428Z,3.00
2022-09-15T15:38:50.942Z,4.57
2022-09-15T15:41:19.878Z,5.33
2022-09-15T15:43:55.440Z,2.83
2022-09-15T15:46:40.709Z,5.83
2022-09-15T15:49:10.709Z,5.27
2022-09-15T15:51:37.045Z,3.27
2022-09-15T15:54:03.401Z,2.17
2022-09-15T15:56:29.729Z,4.03
2022-09-15T15:58:56.101Z,3.20
2022-09-15T16:01:22.491Z,4.03
2022-09-15T16:03:48.895Z,2.17
2022-09-15T16:06:15.853Z,5.07
2022-09-15T16:08:43.155Z,3.77
2022-09-15T16:11:10.783Z,4.13
2022-09-15T16:13:37.351Z,3.50
2022-09-15T16:16:11.122Z,4.57
2022-09-15T16:18:37.837Z,3.07
2022-09-15T16:21:04.253Z,2.50
2022-09-15T16:23:31.585Z,5.50
2022-09-15T16:25:59.680Z,4.47
2022-09-15T16:28:26.147Z,2.83
2022-09-15T16:30:52.477Z,2.73
2022-09-15T16:33:19.139Z,8.57
2022-09-15T16:35:45.944Z,2.90
2022-09-15T16:38:12.371Z,4.10
2022-09-15T16:40:38.703Z,3.97
2022-09-15T16:43:09.101Z,2.97
2022-09-15T16:45:40.817Z,3.97
2022-09-15T16:48:11.807Z,3.87
2022-09-15T16:50:40.203Z,4.10
2022-09-15T16:53:20.759Z,3.40
2022-09-15T16:55:48.194Z,4.50
2022-09-15T16:58:17.543Z,4.00
2022-09-15T17:00:44.674Z,5.07
2022-09-15T17:03:14.629Z,6.23
2022-09-15T17:08:53.112Z,5.13
2022-09-15T17:14:21.636Z,3.30
2022-09-15T17:16:54.423Z,5.50
2022-09-15T17:19:24.256Z,5.07
2022-09-15T17:21:52.595Z,3.73
2022-09-15T17:24:22.197Z,4.07
2022-09-15T17:26:48.530Z,3.63
2022-09-15T17:29:14.964Z,5.97
2022-09-15T17:31:41.351Z,4.10
2022-09-15T17:34:12.635Z,6.53
2022-09-15T17:36:39.083Z,6.23
2022-09-15T17:39:05.443Z,6.23
2022-09-15T17:41:32.187Z,5.53
2022-09-15T17:43:58.493Z,6.00
2022-09-15T17:46:24.881Z,5.10
2022-09-15T17:48:51.210Z,6.83
2022-09-15T17:51:17.649Z,5.13
2022-09-15T17:53:45.809Z,8.17
2022-09-15T17:56:12.269Z,5.43
2022-09-15T17:58:38.641Z,5.70
2022-09-15T18:01:05.072Z,5.90
2022-09-15T18:03:35.394Z,4.93
2022-09-15T18:06:05.038Z,5.40
2022-09-15T18:08:32.870Z,5.00
2022-09-15T18:10:59.754Z,7.13
2022-09-15T18:13:27.285Z,6.07
2022-09-15T18:15:54.076Z,5.57
2022-09-15T18:18:21.711Z,4.63
2022-09-15T18:20:49.712Z,4.57
2022-09-15T18:23:23.129Z,4.50
2022-09-15T18:25:49.836Z,8.10
2022-09-15T18:28:16.609Z,5.57
2022-09-15T18:30:44.243Z,4.63
2022-09-15T18:33:18.524Z,10.47
2022-09-15T18:35:45.284Z,4.80
2022-09-15T18:38:11.910Z,5.70
2022-09-15T18:40:38.257Z,6.07
2022-09-15T18:43:05.522Z,4.93
2022-09-15T18:45:31.889Z,6.43
2022-09-15T18:47:58.216Z,5.57
2022-09-15T18:50:25.509Z,5.20
2022-09-15T18:52:52.250Z,5.47
2022-09-15T18:55:20.212Z,4.93
2022-09-15T18:57:47.202Z,6.50
2022-09-15T19:00:15.108Z,7.80
2022-09-15T19:02:41.525Z,5.37
2022-09-15T19:05:11.046Z,6.07
2022-09-15T19:07:38.374Z,6.83
2022-09-15T19:10:05.764Z,6.83
2022-09-15T19:12:32.089Z,6.77
2022-09-15T19:14:58.421Z,7.63
2022-09-15T19:17:24.741Z,5.40
2022-09-15T19:19:51.362Z,6.43
2022-09-15T19:22:17.699Z,6.80
2022-09-15T19:24:44.044Z,5.90
2022-09-15T19:27:10.435Z,6.17
2022-09-15T19:29:37.202Z,5.17
2022-09-15T19:32:04.553Z,6.50
2022-09-15T19:34:31.004Z,7.33
2022-09-15T19:36:57.777Z,6.33
2022-09-15T19:39:24.332Z,5.20
2022-09-15T19:41:51.249Z,5.60
2022-09-15T19:44:17.878Z,7.57
2022-09-15T19:46:44.320Z,5.33
2022-09-15T19:49:11.380Z,5.97
2022-09-15T19:51:37.918Z,6.63
2022-09-15T19:54:04.563Z,6.67
2022-09-15T19:56:31.048Z,5.53
2022-09-15T19:58:58.086Z,6.80
2022-09-15T20:01:25.333Z,6.17
2022-09-15T20:03:55.972Z,5.10
2022-09-15T20:06:22.875Z,9.07
2022-09-15T20:08:58.043Z,5.73
2022-09-15T20:11:25.996Z,7.10
2022-09-15T20:13:52.956Z,5.77
2022-09-15T20:16:20.101Z,6.07
2022-09-15T20:18:47.743Z,4.63
2022-09-15T20:21:26.891Z,5.47
2022-09-15T20:23:59.635Z,7.60
2022-09-15T20:26:26.583Z,5.30
2022-09-15T20:28:53.775Z,7.77
2022-09-15T20:31:24.926Z,7.43
2022-09-15T20:33:51.784Z,5.27
2022-09-15T20:36:19.383Z,3.70
2022-09-15T20:38:46.535Z,4.17
2022-09-15T20:41:13.657Z,3.77
2022-09-15T20:43:40.915Z,4.13
2022-09-15T20:46:08.610Z,4.43
2022-09-15T20:48:36.568Z,3.47
2022-09-15T20:51:04.422Z,5.20
2022-09-15T20:53:30.916Z,3.27
2022-09-15T20:55:57.712Z,3.03
2022-09-15T20:58:24.487Z,8.33
2022-09-15T21:00:51.883Z,3.43
2022-09-15T21:03:19.178Z,3.90
2022-09-15T21:05:46.016Z,4.10
2022-09-15T21:08:12.979Z,5.47
2022-09-15T21:10:43.505Z,6.00
2022-09-15T21:13:09.856Z,7.00
2022-09-15T21:15:36.194Z,9.43
2022-09-15T21:18:02.580Z,4.90
2022-09-15T21:20:29.041Z,6.37
2022-09-15T21:22:56.086Z,5.20
2022-09-15T21:25:22.700Z,6.50
2022-09-15T21:27:50.296Z,4.80
2022-09-15T21:30:17.031Z,8.43
2022-09-15T21:32:43.439Z,5.03
2022-09-15T21:35:09.903Z,6.73
2022-09-15T21:37:36.327Z,6.83
2022-09-15T21:40:03.397Z,6.57
2022-09-15T21:42:29.810Z,8.40
2022-09-15T21:44:56.220Z,6.00
2022-09-15T21:47:22.609Z,5.07
2022-09-15T21:49:48.979Z,4.53
2022-09-15T21:52:15.347Z,4.50
2022-09-15T21:54:41.901Z,4.37
2022-09-15T21:57:08.283Z,4.30
2022-09-15T21:59:34.652Z,3.40
2022-09-15T22:02:01.114Z,2.83
2022-09-15T22:04:27.514Z,5.00
2022-09-15T22:06:53.976Z,3.67
2022-09-15T22:09:23.297Z,4.37
2022-09-15T22:11:49.695Z,6.37
2022-09-15T22:14:16.041Z,5.00
2022-09-15T22:16:42.938Z,6.60
2022-09-15T22:19:10.771Z,4.67
2022-09-15T22:21:41.433Z,5.67
2022-09-15T22:24:08.167Z,4.13
2022-09-15T22:26:36.103Z,3.60
2022-09-15T22:29:02.557Z,6.00
2022-09-15T22:31:29.546Z,3.40
2022-09-15T22:33:56.544Z,5.50
2022-09-15T22:36:28.643Z,6.33
2022-09-15T22:38:55.805Z,5.43
2022-09-15T22:41:25.116Z,6.07
2022-09-15T22:43:51.596Z,8.60
2022-09-15T22:46:18.720Z,6.17
2022-09-15T22:48:45.208Z,9.53
2022-09-15T22:51:11.750Z,7.10
2022-09-15T22:53:38.532Z,7.13
2022-09-15T22:56:09.852Z,4.97
2022-09-15T22:58:36.626Z,5.83
2022-09-15T23:01:07.365Z,6.37
2022-09-15T23:03:33.929Z,6.73
2022-09-15T23:06:00.561Z,5.73
2022-09-15T23:08:27.040Z,4.67
2022-09-15T23:10:53.482Z,6.43
2022-09-15T23:13:19.836Z,5.53
2022-09-15T23:15:46.177Z,6.50
2022-09-15T23:18:12.526Z,4.33
2022-09-15T23:20:39.723Z,6.77
2022-09-15T23:23:06.307Z,4.97
2022-09-15T23:25:32.655Z,6.77
2022-09-15T23:27:58.994Z,6.57
2022-09-15T23:30:25.347Z,4.43
2022-09-15T23:32:51.711Z,5.47
2022-09-15T23:35:18.040Z,6.13
2022-09-15T23:37:44.348Z,8.13
2022-09-15T23:40:10.766Z,4.03
2022-09-15T23:42:37.220Z,3.93
2022-09-15T23:45:03.823Z,3.73
2022-09-15T23:47:30.150Z,8.60
2022-09-15T23:49:56.556Z,5.97
2022-09-15T23:52:22.871Z,3.90
2022-09-15T23:54:49.238Z,3.90
2022-09-15T23:57:15.603Z,3.60
2022-09-15T23:59:41.952Z,4.17
